createdAt,value
2023-04-21T00:00:52.589Z,35.22
2023-04-21T00:03:20.276Z,41.47
2023-04-21T00:05:47.035Z,37.03
2023-04-21T00:08:13.882Z,39.80
2023-04-21T00:10:40.598Z,42.50
2023-04-21T00:13:07.243Z,36.53
2023-04-21T00:15:33.622Z,38.45
2023-04-21T00:18:01.729Z,37.25
2023-04-21T00:20:28.320Z,38.60
2023-04-21T00:22:55.817Z,35.03
2023-04-21T00:25:22.980Z,36.83
2023-04-21T00:27:49.604Z,35.38
2023-04-21T00:30:16.487Z,37.70
2023-04-21T00:32:43.186Z,34.35
2023-04-21T00:35:10.579Z,35.75
2023-04-21T00:37:37.047Z,38.53
2023-04-21T00:40:04.757Z,41.08
2023-04-21T00:42:31.568Z,37.97
2023-04-21T00:44:57.911Z,39.38
2023-04-21T00:47:24.652Z,37.05
2023-04-21T00:49:51.335Z,41.20
2023-04-21T00:52:18.618Z,37.08
2023-04-21T00:54:45.657Z,36.78
2023-04-21T00:57:12.319Z,36.38
2023-04-21T00:59:38.685Z,36.53
2023-04-21T01:02:07.903Z,36.15
2023-04-21T01:04:38.966Z,38.78
2023-04-21T01:07:07.292Z,37.05
2023-04-21T01:09:34.769Z,36.47
2023-04-21T01:12:11.574Z,37.95
2023-04-21T01:14:39.626Z,39.92
2023-04-21T01:17:08.010Z,35.33
2023-04-21T01:22:12.942Z,34.92
2023-04-21T01:24:45.079Z,35.50
2023-04-21T01:27:20.336Z,34.20
2023-04-21T01:29:49.851Z,35.90
2023-04-21T01:32:19.399Z,40.25
2023-04-21T01:34:46.289Z,39.33
2023-04-21T01:37:15.718Z,35.85
2023-04-21T01:39:44.719Z,36.60
2023-04-21T01:42:11.697Z,43.67
2023-04-21T01:44:39.108Z,36.65
2023-04-21T01:47:06.215Z,35.25
2023-04-21T01:49:32.848Z,39.33
2023-04-21T01:51:59.426Z,36.15
2023-04-21T01:54:26.386Z,40.83
2023-04-21T01:56:52.818Z,37.33
2023-04-21T01:59:19.458Z,38.30
2023-04-21T02:01:46.334Z,35.10
2023-04-21T02:04:12.914Z,37.13
2023-04-21T02:06:39.592Z,38.10
2023-04-21T02:09:06.145Z,37.60
2023-04-21T02:11:32.803Z,38.38
2023-04-21T02:14:01.494Z,38.22
2023-04-21T02:16:27.884Z,41.13
2023-04-21T02:18:56.876Z,44.80
2023-04-21T02:21:24.419Z,41.58
2023-04-21T02:23:52.362Z,40.10
2023-04-21T02:26:19.705Z,38.78
2023-04-21T02:28:46.702Z,36.80
2023-04-21T02:31:13.725Z,42.88
2023-04-21T02:33:40.358Z,39.30
2023-04-21T02:36:06.944Z,36.90
2023-04-21T02:38:33.344Z,37.80
2023-04-21T02:40:59.923Z,42.20
2023-04-21T02:43:26.923Z,39.45
2023-04-21T02:45:53.308Z,35.72
2023-04-21T02:48:25.102Z,38.33
2023-04-21T02:50:53.883Z,42.58
2023-04-21T02:53:21.075Z,38.97
2023-04-21T02:55:47.996Z,39.58
2023-04-21T02:58:14.779Z,39.38
2023-04-21T03:00:41.482Z,40.88
2023-04-21T03:03:08.415Z,42.70
2023-04-21T03:05:36.263Z,47.15
2023-04-21T03:08:02.947Z,46.90
2023-04-21T03:10:29.379Z,47.90
2023-04-21T03:12:56.346Z,42.35
2023-04-21T03:15:23.016Z,45.65
2023-04-21T03:17:52.010Z,41.45
2023-04-21T03:20:18.604Z,45.38
2023-04-21T03:22:44.990Z,43.70
2023-04-21T03:25:12.127Z,41.05
2023-04-21T03:27:41.792Z,45.60
2023-04-21T03:30:08.951Z,42.50
2023-04-21T03:32:35.552Z,43.13
2023-04-21T03:35:01.954Z,39.08
2023-04-21T03:37:28.668Z,46.00
2023-04-21T03:39:55.301Z,42.20
2023-04-21T03:42:26.029Z,39.92
2023-04-21T03:44:52.352Z,43.30
2023-04-21T03:47:18.697Z,41.95
2023-04-21T03:49:45.282Z,41.50
2023-04-21T03:52:11.983Z,41.65
2023-04-21T03:54:38.397Z,43.83
2023-04-21T03:57:05.413Z,39.72
2023-04-21T03:59:31.998Z,43.53
2023-04-21T04:01:58.376Z,42.97
2023-04-21T04:04:24.900Z,40.80
2023-04-21T04:06:51.414Z,41.28
2023-04-21T04:09:18.237Z,42.25
2023-04-21T04:11:44.865Z,46.63
2023-04-21T04:14:11.400Z,36.72
2023-04-21T04:16:38.032Z,42.85
2023-04-21T04:19:04.986Z,46.30
2023-04-21T04:21:32.626Z,43.78
2023-04-21T04:23:59.388Z,46.13
2023-04-21T04:26:26.440Z,47.47
2023-04-21T04:28:53.397Z,45.30
2023-04-21T04:31:20.073Z,47.22
2023-04-21T04:33:46.563Z,45.35
2023-04-21T04:36:12.997Z,44.42
2023-04-21T04:38:40.264Z,44.58
2023-04-21T04:41:09.077Z,42.92
2023-04-21T04:43:41.732Z,42.72
2023-04-21T04:46:13.307Z,44.28
2023-04-21T04:48:39.963Z,47.00
2023-04-21T04:51:06.804Z,43.90
2023-04-21T04:53:33.237Z,44.95
2023-04-21T04:55:59.811Z,46.72
2023-04-21T04:58:26.693Z,45.92
2023-04-21T05:00:53.162Z,48.08
2023-04-21T05:03:22.117Z,46.80
2023-04-21T05:05:48.596Z,47.88
2023-04-21T05:08:17.247Z,54.78
2023-04-21T05:10:44.663Z,55.10
2023-04-21T05:13:11.027Z,51.83
2023-04-21T05:15:37.679Z,51.17
2023-04-21T05:18:04.366Z,55.60
2023-04-21T05:20:30.878Z,51.30
2023-04-21T05:22:57.272Z,49.78
2023-04-21T05:25:23.754Z,53.72
2023-04-21T05:27:50.447Z,52.50
2023-04-21T05:30:18.045Z,54.35
2023-04-21T05:32:44.442Z,56.30
2023-04-21T05:35:11.262Z,58.47
2023-04-21T05:37:37.647Z,59.45
2023-04-21T05:40:04.852Z,56.45
2023-04-21T05:42:31.206Z,53.90
2023-04-21T05:44:58.087Z,61.60
2023-04-21T05:47:24.424Z,53.63
2023-04-21T05:49:54.234Z,59.88
2023-04-21T05:52:21.810Z,59.13
2023-04-21T05:54:48.347Z,57.67
2023-04-21T05:57:16.540Z,55.67
2023-04-21T05:59:43.911Z,57.78
2023-04-21T06:02:11.622Z,60.58
2023-04-21T06:04:38.207Z,54.05
2023-04-21T06:07:09.689Z,57.90
2023-04-21T06:09:36.722Z,58.58
2023-04-21T06:12:03.428Z,54.33
2023-04-21T06:14:30.067Z,50.35
2023-04-21T06:16:56.433Z,52.60
2023-04-21T06:19:22.859Z,51.47
2023-04-21T06:21:49.274Z,47.40
2023-04-21T06:24:16.821Z,52.53
2023-04-21T06:26:43.465Z,50.80
2023-04-21T06:29:10.043Z,54.97
2023-04-21T06:31:36.780Z,52.35
2023-04-21T06:34:03.397Z,53.55
2023-04-21T06:36:30.876Z,51.42
2023-04-21T06:38:57.262Z,53.85
2023-04-21T06:41:24.903Z,52.38
2023-04-21T06:43:51.411Z,53.30
2023-04-21T06:46:18.378Z,50.70
2023-04-21T06:48:44.925Z,57.03
2023-04-21T06:51:12.663Z,55.10
2023-04-21T06:53:41.640Z,47.10
2023-04-21T06:56:07.987Z,48.45
2023-04-21T06:58:34.360Z,47.08
2023-04-21T07:01:01.217Z,53.10
2023-04-21T07:03:30.160Z,48.65
2023-04-21T07:05:56.729Z,47.55
2023-04-21T07:08:23.129Z,50.00
2023-04-21T07:10:49.510Z,48.28
2023-04-21T07:13:17.921Z,50.33
2023-04-21T07:15:44.568Z,47.65
2023-04-21T07:18:11.271Z,46.47
2023-04-21T07:20:37.962Z,42.50
2023-04-21T07:23:04.374Z,47.65
2023-04-21T07:25:30.988Z,44.58
2023-04-21T07:27:57.428Z,47.95
2023-04-21T07:30:23.830Z,47.13
2023-04-21T07:32:50.488Z,46.47
2023-04-21T07:35:17.245Z,47.58
2023-04-21T07:37:44.267Z,43.22
2023-04-21T07:40:12.582Z,42.75
2023-04-21T07:42:39.457Z,42.30
2023-04-21T07:45:07.683Z,44.28
2023-04-21T07:47:34.469Z,42.78
2023-04-21T07:50:01.210Z,41.10
2023-04-21T07:52:27.600Z,38.53
2023-04-21T07:54:53.946Z,43.92
2023-04-21T07:57:20.380Z,47.03
2023-04-21T07:59:46.984Z,42.42
2023-04-21T08:02:13.483Z,41.08
2023-04-21T08:04:40.280Z,40.97
2023-04-21T08:07:09.981Z,43.78
2023-04-21T08:09:36.623Z,39.55
2023-04-21T08:12:03.065Z,40.30
2023-04-21T08:14:29.721Z,45.25
2023-04-21T08:16:57.631Z,43.55
2023-04-21T08:19:24.241Z,41.17
2023-04-21T08:21:50.599Z,40.92
2023-04-21T08:24:17.055Z,37.03
2023-04-21T08:26:43.842Z,44.78
2023-04-21T08:29:10.760Z,43.30
2023-04-21T08:31:37.306Z,42.33
2023-04-21T08:34:03.973Z,40.08
2023-04-21T08:36:31.696Z,49.53
2023-04-21T08:38:59.039Z,42.58
2023-04-21T08:41:26.493Z,38.75
2023-04-21T08:43:54.206Z,37.03
2023-04-21T08:46:21.672Z,38.77
2023-04-21T08:48:48.322Z,38.25
2023-04-21T08:51:27.736Z,41.90
2023-04-21T08:53:55.414Z,41.25
2023-04-21T08:56:22.288Z,37.70
2023-04-21T08:58:48.686Z,36.42
2023-04-21T09:01:15.400Z,40.05
2023-04-21T09:03:42.957Z,39.88
2023-04-21T09:06:10.643Z,39.55
2023-04-21T09:08:42.227Z,39.10
2023-04-21T09:11:08.817Z,41.30
2023-04-21T09:13:38.979Z,41.53
2023-04-21T09:16:16.926Z,40.22
2023-04-21T09:18:44.629Z,40.20
2023-04-21T09:21:16.466Z,41.15
2023-04-21T09:23:43.718Z,41.83
2023-04-21T09:26:11.263Z,46.20
2023-04-21T09:28:41.589Z,42.13
2023-04-21T09:31:15.639Z,42.00
2023-04-21T09:33:57.633Z,41.15
2023-04-21T09:36:28.529Z,41.10
2023-04-21T09:41:28.267Z,37.20
2023-04-21T09:43:55.268Z,40.08
2023-04-21T09:46:22.715Z,39.88
2023-04-21T09:48:49.762Z,39.97
2023-04-21T09:53:52.490Z,38.28
2023-04-21T09:56:22.361Z,40.20
2023-04-21T09:58:53.882Z,36.25
2023-04-21T10:01:21.115Z,37.08
2023-04-21T10:03:53.401Z,37.70
2023-04-21T10:06:20.058Z,36.88
2023-04-21T10:08:48.426Z,35.35
2023-04-21T10:11:16.335Z,34.45
2023-04-21T10:13:43.312Z,36.38
2023-04-21T10:16:10.997Z,39.05
2023-04-21T10:18:47.392Z,39.43
2023-04-21T10:21:26.763Z,34.55
2023-04-21T10:23:54.399Z,34.78
2023-04-21T10:26:26.097Z,36.30
2023-04-21T10:29:04.802Z,37.95
2023-04-21T10:31:55.718Z,34.75
2023-04-21T10:34:29.931Z,40.20
2023-04-21T10:36:56.429Z,35.47
2023-04-21T10:39:43.734Z,41.47
2023-04-21T10:42:16.220Z,40.75
2023-04-21T10:44:51.915Z,35.90
2023-04-21T10:47:37.216Z,35.58
2023-04-21T10:50:18.547Z,36.50
2023-04-21T10:52:54.914Z,35.95
2023-04-21T10:55:22.552Z,36.67
2023-04-21T10:57:51.730Z,37.63
2023-04-21T11:00:21.733Z,38.30
2023-04-21T11:02:58.417Z,34.75
2023-04-21T11:05:29.784Z,34.10
2023-04-21T11:08:06.306Z,36.00
2023-04-21T11:10:49.395Z,41.63
2023-04-21T11:13:18.495Z,36.03
2023-04-21T11:16:07.264Z,31.58
2023-04-21T11:18:38.783Z,35.03
2023-04-21T11:21:21.391Z,39.50
2023-04-21T11:23:49.740Z,37.10
2023-04-21T11:26:18.218Z,35.60
2023-04-21T11:28:47.896Z,38.42
2023-04-21T11:31:14.400Z,36.22
2023-04-21T11:33:40.950Z,33.63
2023-04-21T11:36:08.380Z,35.33
2023-04-21T11:38:40.059Z,29.38
2023-04-21T11:41:07.630Z,35.60
2023-04-21T11:43:34.089Z,33.30
2023-04-21T11:46:33.821Z,31.05
2023-04-21T11:49:16.555Z,32.45
2023-04-21T11:51:44.246Z,30.25
2023-04-21T11:54:12.829Z,24.47
2023-04-21T11:59:12.056Z,28.00
2023-04-21T12:01:51.838Z,27.35
2023-04-21T12:04:21.166Z,37.72
2023-04-21T12:07:01.647Z,30.20
2023-04-21T12:09:29.875Z,31.75
2023-04-21T12:11:58.641Z,28.27
2023-04-21T12:14:28.970Z,28.88
2023-04-21T12:16:57.293Z,27.00
2023-04-21T12:19:37.202Z,27.15
2023-04-21T12:22:10.638Z,25.95
2023-04-21T12:24:38.048Z,28.27
2023-04-21T12:27:05.802Z,29.55
2023-04-21T12:29:35.008Z,29.13
2023-04-21T12:32:02.307Z,32.63
2023-04-21T12:34:28.872Z,26.60
2023-04-21T12:36:55.417Z,28.48
2023-04-21T12:39:22.143Z,25.42
2023-04-21T12:41:48.834Z,25.63
2023-04-21T12:44:15.457Z,28.35
2023-04-21T12:46:42.205Z,27.77
2023-04-21T12:49:10.014Z,25.80
2023-04-21T12:51:36.703Z,26.23
2023-04-21T12:54:03.500Z,29.23
2023-04-21T12:56:30.431Z,27.02
2023-04-21T12:58:58.095Z,32.35
2023-04-21T13:01:24.821Z,30.20
2023-04-21T13:03:51.423Z,27.05
2023-04-21T13:06:18.223Z,32.28
2023-04-21T13:08:44.821Z,26.08
2023-04-21T13:11:11.475Z,30.33
2023-04-21T13:13:38.980Z,29.55
2023-04-21T13:16:06.084Z,25.50
2023-04-21T13:18:34.802Z,25.02
2023-04-21T13:21:01.677Z,25.90
2023-04-21T13:23:28.328Z,25.98
2023-04-21T13:25:55.972Z,28.50
2023-04-21T13:28:23.048Z,26.27
2023-04-21T13:30:52.683Z,27.58
2023-04-21T13:33:19.821Z,28.40
2023-04-21T13:35:46.469Z,24.48
2023-04-21T13:38:13.051Z,24.70
2023-04-21T13:40:39.432Z,25.17
2023-04-21T13:43:06.111Z,28.52
2023-04-21T13:45:32.741Z,26.90
2023-04-21T13:47:59.262Z,27.88
2023-04-21T13:50:25.798Z,26.63
2023-04-21T13:52:52.590Z,29.05
2023-04-21T13:55:20.376Z,26.08
2023-04-21T13:57:47.120Z,26.13
2023-04-21T14:00:14.376Z,26.17
2023-04-21T14:02:41.874Z,27.05
2023-04-21T14:05:08.754Z,24.93
2023-04-21T14:07:36.598Z,23.95
2023-04-21T14:10:04.307Z,28.00
2023-04-21T14:12:30.730Z,26.90
2023-04-21T14:14:57.368Z,24.63
2023-04-21T14:17:23.786Z,27.95
2023-04-21T14:19:51.172Z,30.20
2023-04-21T14:22:19.584Z,26.45
2023-04-21T14:24:46.182Z,26.48
2023-04-21T14:27:12.760Z,28.50
2023-04-21T14:29:39.186Z,26.88
2023-04-21T14:32:05.994Z,25.20
2023-04-21T14:34:32.734Z,27.90
2023-04-21T14:37:00.493Z,27.30
2023-04-21T14:39:27.251Z,28.60
2023-04-21T14:41:56.861Z,25.73
2023-04-21T14:44:23.644Z,29.45
2023-04-21T14:47:00.934Z,26.80
2023-04-21T14:49:33.036Z,28.80
2023-04-21T14:51:59.652Z,28.30
2023-04-21T14:54:26.120Z,25.85
2023-04-21T14:56:58.100Z,27.10
2023-04-21T14:59:29.916Z,28.40
2023-04-21T15:01:56.527Z,25.65
2023-04-21T15:04:23.892Z,26.40
2023-04-21T15:06:52.352Z,28.02
2023-04-21T15:09:19.556Z,26.88
2023-04-21T15:11:46.828Z,28.23
2023-04-21T15:14:13.689Z,27.48
2023-04-21T15:16:43.885Z,27.85
2023-04-21T15:19:10.996Z,25.90
2023-04-21T15:21:37.586Z,25.73
2023-04-21T15:24:03.977Z,26.35
2023-04-21T15:26:31.773Z,30.80
2023-04-21T15:28:59.416Z,25.77
2023-04-21T15:31:26.016Z,25.33
2023-04-21T15:33:52.697Z,25.35
2023-04-21T15:36:19.109Z,25.33
2023-04-21T15:38:45.579Z,23.73
2023-04-21T15:41:11.974Z,22.73
2023-04-21T15:43:38.626Z,21.63
2023-04-21T15:46:12.865Z,20.20
2023-04-21T15:48:41.168Z,22.30
2023-04-21T15:51:08.721Z,19.08
2023-04-21T15:53:35.444Z,20.83
2023-04-21T15:56:01.825Z,22.63
2023-04-21T15:58:28.208Z,19.92
2023-04-21T16:00:54.743Z,18.42
2023-04-21T16:03:21.869Z,18.90
2023-04-21T16:05:48.954Z,16.90
2023-04-21T16:08:15.613Z,16.75
2023-04-21T16:10:42.016Z,16.73
2023-04-21T16:13:08.446Z,16.77
2023-04-21T16:15:35.201Z,17.52
2023-04-21T16:18:06.374Z,14.88
2023-04-21T16:20:33.049Z,13.43
2023-04-21T16:22:59.934Z,17.50
2023-04-21T16:25:27.123Z,13.02
2023-04-21T16:27:53.602Z,12.05
2023-04-21T16:30:20.976Z,11.80
2023-04-21T16:32:49.143Z,14.82
2023-04-21T16:35:15.890Z,12.85
2023-04-21T16:37:44.254Z,16.15
2023-04-21T16:40:11.378Z,17.27
2023-04-21T16:42:37.850Z,16.15
2023-04-21T16:45:06.562Z,14.45
2023-04-21T16:47:39.665Z,14.85
2023-04-21T16:50:09.095Z,15.10
2023-04-21T16:52:35.883Z,14.70
2023-04-21T16:55:02.314Z,13.50
2023-04-21T16:57:29.717Z,15.75
2023-04-21T16:59:56.373Z,16.60
2023-04-21T17:02:22.831Z,20.08
2023-04-21T17:04:49.367Z,14.27
2023-04-21T17:07:16.084Z,22.27
2023-04-21T17:09:42.710Z,16.50
2023-04-21T17:12:09.699Z,14.40
2023-04-21T17:14:36.627Z,11.27
2023-04-21T17:17:03.700Z,15.77
2023-04-21T17:19:32.847Z,14.60
2023-04-21T17:21:59.476Z,11.40
2023-04-21T17:24:26.129Z,9.57
2023-04-21T17:26:52.974Z,12.07
2023-04-21T17:29:19.358Z,12.93
2023-04-21T17:31:45.774Z,11.00
2023-04-21T17:34:12.491Z,17.23
2023-04-21T17:36:40.802Z,15.43
2023-04-21T17:39:08.267Z,17.85
2023-04-21T17:41:34.603Z,17.55
2023-04-21T17:44:01.102Z,19.70
2023-04-21T17:46:27.554Z,22.70
2023-04-21T17:48:54.429Z,31.80
2023-04-21T17:51:21.015Z,26.05
2023-04-21T17:53:47.326Z,23.25
2023-04-21T17:56:14.488Z,32.33
2023-04-21T17:58:41.870Z,34.85
2023-04-21T18:01:08.580Z,29.83
2023-04-21T18:03:36.391Z,31.75
2023-04-21T18:06:04.778Z,33.00
2023-04-21T18:08:32.395Z,38.25
2023-04-21T18:10:58.776Z,37.47
2023-04-21T18:13:25.229Z,45.65
2023-04-21T18:15:52.974Z,31.65
2023-04-21T18:18:19.414Z,33.30
2023-04-21T18:20:45.841Z,30.33
2023-04-21T18:23:12.241Z,29.02
2023-04-21T18:25:42.728Z,30.65
2023-04-21T18:28:31.914Z,36.90
2023-04-21T18:30:58.451Z,36.35
2023-04-21T18:33:26.699Z,30.65
2023-04-21T18:35:53.045Z,29.25
2023-04-21T18:38:19.618Z,31.98
2023-04-21T18:40:46.325Z,29.98
2023-04-21T18:43:15.696Z,26.30
2023-04-21T18:45:42.113Z,26.95
2023-04-21T18:48:08.633Z,29.55
2023-04-21T18:50:39.488Z,32.97
2023-04-21T18:53:07.784Z,27.45
2023-04-21T18:55:37.297Z,32.75
2023-04-21T18:58:04.380Z,25.73
2023-04-21T19:00:32.183Z,31.95
2023-04-21T19:03:02.279Z,33.63
2023-04-21T19:05:31.627Z,33.72
2023-04-21T19:07:58.922Z,29.90
2023-04-21T19:10:26.259Z,24.27
2023-04-21T19:12:53.081Z,26.83
2023-04-21T19:15:21.152Z,28.25
2023-04-21T19:17:50.320Z,23.33
2023-04-21T19:20:17.897Z,23.80
2023-04-21T19:22:44.576Z,30.52
2023-04-21T19:25:11.893Z,29.30
2023-04-21T19:27:46.488Z,28.85
2023-04-21T19:30:13.417Z,25.50
2023-04-21T19:32:40.011Z,26.90
2023-04-21T19:35:09.624Z,35.05
2023-04-21T19:37:36.291Z,26.27
2023-04-21T19:40:03.986Z,31.25
2023-04-21T19:42:30.876Z,30.70
2023-04-21T19:44:57.677Z,35.20
2023-04-21T19:47:24.100Z,33.25
2023-04-21T19:49:50.569Z,31.45
2023-04-21T19:52:17.197Z,20.70
2023-04-21T19:54:43.864Z,27.77
2023-04-21T19:57:10.501Z,24.45
2023-04-21T19:59:37.121Z,24.50
2023-04-21T20:02:04.835Z,30.27
2023-04-21T20:04:37.547Z,25.47
2023-04-21T20:07:04.008Z,21.98
2023-04-21T20:09:31.204Z,26.60
2023-04-21T20:11:57.829Z,23.92
2023-04-21T20:14:24.598Z,21.85
2023-04-21T20:16:51.267Z,21.58
2023-04-21T20:19:17.839Z,20.58
2023-04-21T20:21:44.600Z,21.58
2023-04-21T20:24:11.044Z,23.10
2023-04-21T20:26:37.445Z,21.60
2023-04-21T20:29:04.573Z,30.80
2023-04-21T20:31:31.882Z,31.27
2023-04-21T20:34:00.813Z,27.25
2023-04-21T20:36:28.513Z,26.13
2023-04-21T20:38:57.743Z,33.37
2023-04-21T20:41:25.003Z,20.10
2023-04-21T20:43:54.005Z,19.00
2023-04-21T20:46:20.685Z,15.82
2023-04-21T20:48:47.103Z,16.27
2023-04-21T20:51:13.472Z,14.90
2023-04-21T20:53:40.867Z,14.55
2023-04-21T20:56:09.635Z,17.60
2023-04-21T20:58:36.952Z,14.73
2023-04-21T21:01:03.386Z,18.83
2023-04-21T21:03:30.946Z,11.98
2023-04-21T21:05:58.747Z,15.70
2023-04-21T21:08:25.520Z,15.00
2023-04-21T21:10:52.778Z,13.35
2023-04-21T21:13:21.334Z,13.13
2023-04-21T21:18:16.574Z,15.23
2023-04-21T21:20:43.157Z,13.52
2023-04-21T21:23:09.666Z,17.77
2023-04-21T21:25:36.051Z,21.73
2023-04-21T21:28:04.697Z,17.83
2023-04-21T21:30:31.072Z,15.98
2023-04-21T21:32:57.617Z,13.68
2023-04-21T21:35:24.191Z,16.52
2023-04-21T21:37:50.515Z,25.23
2023-04-21T21:40:16.902Z,16.92
2023-04-21T21:42:43.505Z,16.80
2023-04-21T21:45:11.042Z,17.60
2023-04-21T21:47:41.785Z,16.55
2023-04-21T21:50:12.303Z,14.60
2023-04-21T21:52:38.615Z,14.65
2023-04-21T21:55:05.594Z,15.80
2023-04-21T21:57:32.254Z,14.00
2023-04-21T22:00:00.366Z,12.13
2023-04-21T22:02:26.845Z,14.55
2023-04-21T22:04:55.198Z,14.13
2023-04-21T22:07:25.167Z,14.45
2023-04-21T22:09:52.242Z,18.67
2023-04-21T22:12:18.686Z,14.30
2023-04-21T22:14:46.642Z,13.40
2023-04-21T22:17:13.079Z,13.05
2023-04-21T22:19:41.668Z,24.40
2023-04-21T22:24:34.886Z,13.57
2023-04-21T22:27:02.043Z,13.27
2023-04-21T22:29:28.394Z,13.30
2023-04-21T22:31:54.933Z,15.57
2023-04-21T22:34:21.449Z,15.38
2023-04-21T22:36:47.906Z,15.43
2023-04-21T22:39:14.286Z,12.77
2023-04-21T22:41:41.011Z,13.05
2023-04-21T22:44:07.434Z,13.23
2023-04-21T22:46:34.008Z,12.13
2023-04-21T22:49:03.348Z,14.48
2023-04-21T22:51:32.542Z,11.43
2023-04-21T22:54:00.187Z,16.17
2023-04-21T22:56:28.411Z,14.70
2023-04-21T22:58:54.798Z,14.32
2023-04-21T23:01:21.483Z,13.23
2023-04-21T23:03:48.282Z,12.57
2023-04-21T23:06:15.048Z,17.13
2023-04-21T23:08:41.439Z,16.65
2023-04-21T23:11:07.904Z,16.27
2023-04-21T23:13:34.261Z,15.02
2023-04-21T23:16:01.186Z,19.60
2023-04-21T23:18:27.867Z,15.02
2023-04-21T23:20:54.785Z,17.23
2023-04-21T23:23:21.294Z,14.70
2023-04-21T23:25:47.632Z,16.00
2023-04-21T23:28:14.297Z,15.75
2023-04-21T23:30:40.764Z,14.05
2023-04-21T23:33:07.196Z,14.98
2023-04-21T23:35:33.826Z,12.32
2023-04-21T23:38:00.239Z,17.08
2023-04-21T23:40:27.367Z,15.23
2023-04-21T23:42:53.960Z,17.88
2023-04-21T23:45:23.800Z,15.27
2023-04-21T23:47:50.272Z,17.08
2023-04-21T23:50:16.807Z,14.23
2023-04-21T23:52:44.370Z,15.45
2023-04-21T23:55:13.832Z,14.23
2023-04-21T23:57:40.467Z,15.10
